Have a Safe July 4th! 

Flight Track Log - Related Links

Times and Time Zones

All times are in EDT time to prevent confusion due to time zone crossing. See the SWA1563 flight status page for this flight to view local times or setup timezone preferences in your user account.

Time Position Orientation Groundspeed Altitude Reporting Facility
EDT Latitude Longitude Course Direction KTS MPH feet Rate Location/Type
Sat 01:51:36 PM 29.6336 -95.2917 165° South 165 190 1,300  Level Houston Center
Sat 01:52:21 PM 29.6056 -95.2828 165° South 213 245 3,000 2,824 Climbing Houston Center
Sat 01:52:44 PM 29.6056 -95.2397 90° East 277 319 4,500 2,903 Climbing Houston Center
Sat 01:53:23 PM 29.6392 -95.2236 23° Northeast 280 322 6,000 3,443 Climbing Houston Center
Sat 01:53:45 PM 29.6786 -95.2333 348° North 285 328 8,000 3,871 Climbing Houston Center
Sat 01:54:25 PM 29.7183 -95.2458 345° North 289 333 10,000 3,344 Climbing Houston Center
Sat 01:54:46 PM 29.7625 -95.2569 348° North 303 349 11,400 3,774 Climbing Houston Center
Sat 01:55:27 PM 29.8236 -95.2739 346° North 316 364 13,900 3,146 Climbing Houston Center
Sat 01:56:29 PM 29.9169 -95.3006 346° North 338 389 16,800 2,829 Climbing Houston Center
Sat 01:57:30 PM 30.0169 -95.3297 346° North 363 418 19,700 2,732 Climbing Houston Center
Sat 01:58:32 PM 30.1197 -95.3594 346° North 377 434 22,400 2,419 Climbing Houston Center
Sat 01:59:34 PM 30.2236 -95.3889 346° North 384 442 24,700 1,839 Climbing Houston Center
Sat 02:00:36 PM 30.3331 -95.4206 346° North 403 464 26,200 1,742 Climbing Houston Center
Sat 02:01:38 PM 30.4447 -95.4528 346° North 413 475 28,300 2,293 Climbing Houston Center
Sat 02:02:39 PM 30.5831 -95.4878 348° North 424 488 30,900 1,805 Climbing Houston Center
Sat 02:03:41 PM 30.7053 -95.5144 349° North 421 484 32,000 532 Climbing Houston Center
Sat 02:04:43 PM 30.8208 -95.5414 349° North 422 486 32,000  Level Houston Center
Sat 02:05:45 PM 30.9383 -95.5669 349° North 426 490 32,000  Level Houston Center
Sat 02:06:47 PM 31.0553 -95.5933 349° North 425 489 32,000  Level Houston Center
Sat 02:07:49 PM 31.1731 -95.6197 349° North 428 493 32,000 -157 Level Houston Center
Sat 02:08:42 PM 31.2886 -95.6436 350° North 428 493 31,700 -690 Descending Fort Worth Center
Sat 02:09:42 PM 31.3978 -95.6903 340° North 418 481 30,700 -1,000 Descending Fort Worth Center
Sat 02:10:42 PM 31.4989 -95.7567 331° Northwest 412 474 29,700 -900 Descending Fort Worth Center
Sat 02:11:42 PM 31.5917 -95.8183 330° Northwest 417 480 28,900 -850 Descending Fort Worth Center
Sat 02:12:42 PM 31.6928 -95.8897 329° Northwest 426 490 28,000 -1,500 Descending Fort Worth Center
Sat 02:13:42 PM 31.7958 -95.9542 332° Northwest 426 490 25,900 -2,350 Descending Fort Worth Center
Sat 02:14:42 PM 31.8925 -96.0186 330° Northwest 412 474 23,300 -2,550 Descending Fort Worth Center
Sat 02:15:42 PM 31.9767 -96.0786 329° Northwest 381 438 20,800 -2,450 Descending Fort Worth Center
Sat 02:16:42 PM 32.0650 -96.1336 332° Northwest 363 418 18,400 -2,300 Descending Fort Worth Center
Sat 02:17:42 PM 32.1469 -96.1914 329° Northwest 353 406 16,200 -2,350 Descending Fort Worth Center
Sat 02:18:42 PM 32.2350 -96.2492 331° Northwest 341 392 13,700 -2,300 Descending Fort Worth Center
Sat 02:19:42 PM 32.3086 -96.2925 334° Northwest 328 377 11,600 -1,900 Descending Fort Worth Center
Sat 02:20:42 PM 32.3883 -96.3456 331° Northwest 316 364 9,900 -1,300 Descending Fort Worth Center
Sat 02:21:42 PM 32.4411 -96.3992 319° Northwest 284 327 9,000 -1,000 Descending Fort Worth Center
Sat 02:22:42 PM 32.5042 -96.4650 319° Northwest 269 310 7,900 -1,000 Descending Fort Worth Center
Sat 02:23:42 PM 32.5525 -96.5186 317° Northwest 269 310 7,000 -1,000 Descending Fort Worth Center
Sat 02:24:42 PM 32.6114 -96.5797 319° Northwest 264 304 5,900 -1,050 Descending Fort Worth Center
Sat 02:25:42 PM 32.6578 -96.6286 318° Northwest 258 297 4,900 -1,000 Descending Fort Worth Center
Sat 02:26:24 PM 32.7000 -96.6667 323° Northwest 242 278 4,200 -1,118 Descending Dallas / Fort Worth TRACON
Sat 02:27:24 PM 32.7333 -96.7167 308° West 221 254 3,000 -992 Descending Dallas / Fort Worth TRACON
Sat 02:28:25 PM 32.7833 -96.7667 320° Northwest 182 209 2,200 -793 Descending Dallas / Fort Worth TRACON
Sat 02:29:25 PM 32.8167 -96.8000 320° Northwest 143 165 1,400 -800 Descending Dallas / Fort Worth TRACON

Login

Don't have an account? Register now (free) for customized features, flight alerts, and more!